Time;durP1;ratioP1;P1;durP2;ratioP2;P2;SDS_P1;SDS_P2;PMS_P1;PMS_P2;Temp;Humidity;BMP_temperature;BMP_pressure;BME280_temperature;BME280_humidity;BME280_pressure;Samples;Min_cycle;Max_cycle;Signal;HPM_P1;HPM_P2
2021/06/27 00:00:33;;;;;;;;;;;;;;;;;;5030930;28;20299;-74
2021/06/27 00:02:59;;;;;;;;;;;;;;;;;;5045297;28;19924;-74
2021/06/27 00:05:25;;;;;;;;;;;;;;;;;;5030216;28;20323;-74
2021/06/27 00:07:51;;;;;;;;;;;;;;;;;;5030281;28;19921;-74
2021/06/27 00:10:17;;;;;;;;;;;;;;;;;;5028930;28;20368;-74
2021/06/27 00:12:43;;;;;;;;;;;;;;;;;;5027005;28;20079;-74
2021/06/27 00:15:09;;;;;;;;;;;;;;;;;;5023685;28;20004;-73
2021/06/27 00:17:35;;;;;;;;;;;;;;;;;;5025703;28;19914;-74
2021/06/27 00:20:01;;;;;;;;;;;;;;;;;;5027477;28;19932;-74
2021/06/27 00:22:26;;;;;;;;;;;;;;;;;;5029431;28;19913;-74
2021/06/27 00:24:52;;;;;;;;;;;;;;;;;;5028011;28;19959;-73
2021/06/27 00:27:19;;;;;;;;;;;;;;;;;;5022276;28;20023;-74
2021/06/27 00:29:45;;;;;;;;;;;;;;;;;;5030306;28;19928;-74
2021/06/27 00:32:12;;;;;;;;;;;;;;;;;;5027340;28;20008;-74
2021/06/27 00:34:38;;;;;;;;;;;;;;;;;;5029717;28;20004;-74
2021/06/27 00:37:04;;;;;;;;;;;;;;;;;;5024038;28;20472;-74
2021/06/27 00:39:29;;;;;;;;;;;;;;;;;;5024351;28;19920;-73
2021/06/27 00:41:55;;;;;;;;;;;;;;;;;;5027120;28;19917;-74
2021/06/27 00:44:21;;;;;;;;;;;;;;;;;;5028302;28;19917;-74
2021/06/27 00:46:47;;;;;;;;;;;;;;;;;;5023805;28;19914;-74
2021/06/27 00:49:13;;;;;;;;;;;;;;;;;;5026861;28;19920;-73
2021/06/27 00:51:39;;;;;;;;;;;;;;;;;;5029815;28;20392;-74
2021/06/27 00:54:05;;;;;;;;;;;;;;;;;;5027964;28;19971;-74
2021/06/27 00:56:31;;;;;;;;;;;;;;;;;;5029793;28;19988;-74
2021/06/27 00:58:57;;;;;;;;;;;;;;;;;;5026265;28;19920;-74
2021/06/27 01:01:22;;;;;;;;;;;;;;;;;;5024007;28;19940;-73
2021/06/27 01:03:48;;;;;;;;;;;;;;;;;;5027421;28;19952;-74
2021/06/27 01:06:14;;;;;;;;;;;;;;;;;;5029306;28;20339;-73
2021/06/27 01:08:40;;;;;;;;;;;;;;;;;;5024802;28;19924;-73
2021/06/27 01:11:06;;;;;;;;;;;;;;;;;;5027550;28;20308;-74
2021/06/27 01:13:33;;;;;;;;;;;;;;;;;;5025993;28;19924;-73
2021/06/27 01:15:59;;;;;;;;;;;;;;;;;;5027917;28;20364;-74
2021/06/27 01:18:25;;;;;;;;;;;;;;;;;;5025803;28;19964;-73
2021/06/27 01:20:51;;;;;;;;;;;;;;;;;;5024779;28;19921;-74
2021/06/27 01:23:17;;;;;;;;;;;;;;;;;;5028704;28;19914;-74
2021/06/27 01:25:43;;;;;;;;;;;;;;;;;;5027773;28;20412;-74
2021/06/27 01:28:09;;;;;;;;;;;;;;;;;;5027055;28;19995;-73
2021/06/27 01:30:35;;;;;;;;;;;;;;;;;;5028527;28;19913;-74
2021/06/27 01:33:00;;;;;;;;;;;;;;;;;;5029214;28;20012;-74
2021/06/27 01:35:26;;;;;;;;;;;;;;;;;;5027351;28;19921;-74
2021/06/27 01:37:52;;;;;;;;;;;;;;;;;;5028193;28;20012;-74
2021/06/27 01:40:18;;;;;;;;;;;;;;;;;;5025523;28;19924;-74
2021/06/27 01:42:44;;;;;;;;;;;;;;;;;;5027651;28;19932;-74
2021/06/27 01:45:10;;;;;;;;;;;;;;;;;;5027346;28;19913;-74
2021/06/27 01:47:36;;;;;;;;;;;;;;;;;;5024611;28;20399;-74
2021/06/27 01:50:02;;;;;;;;;;;;;;;;;;5024785;28;20369;-74
2021/06/27 01:52:28;;;;;;;;;;;;;;;;;;5026604;28;19943;-73
2021/06/27 01:54:54;;;;;;;;;;;;;;;;;;5044338;28;19961;-74
2021/06/27 01:57:19;;;;;;;;;;;;;;;;;;5026988;28;19996;-74
2021/06/27 01:59:47;;;;;;;;;;;;;;;;;;5026122;28;19920;-73
2021/06/27 02:02:13;;;;;;;;;;;;;;;;;;5027016;28;19924;-73
2021/06/27 02:04:39;;;;;;;;;;;;;;;;;;5026506;28;19917;-74
2021/06/27 02:07:05;;;;;;;;;;;;;;;;;;5026867;28;20384;-74
2021/06/27 02:09:31;;;;;;;;;;;;;;;;;;5023223;28;19913;-73
2021/06/27 02:11:57;;;;;;;;;;;;;;;;;;5024984;28;20027;-73
2021/06/27 02:14:23;;;;;;;;;;;;;;;;;;5027468;28;20266;-74
2021/06/27 02:16:48;;;;;;;;;;;;;;;;;;5028889;28;20585;-74
2021/06/27 02:19:14;;;;;;;;;;;;;;;;;;5027315;28;19920;-74
2021/06/27 02:21:40;;;;;;;;;;;;;;;;;;5026202;28;19913;-74
2021/06/27 02:24:06;;;;;;;;;;;;;;;;;;5021759;28;19956;-73
2021/06/27 02:26:32;;;;;;;;;;;;;;;;;;5024433;28;19920;-74
2021/06/27 02:28:58;;;;;;;;;;;;;;;;;;5026486;28;19958;-74
2021/06/27 02:31:24;;;;;;;;;;;;;;;;;;5023867;28;19913;-74
2021/06/27 02:33:50;;;;;;;;;;;;;;;;;;5021191;28;19924;-74
2021/06/27 02:36:16;;;;;;;;;;;;;;;;;;5026792;28;19921;-74
2021/06/27 02:38:42;;;;;;;;;;;;;;;;;;5031503;28;19913;-73
2021/06/27 02:41:08;;;;;;;;;;;;;;;;;;5030763;28;19913;-74
2021/06/27 02:43:33;;;;;;;;;;;;;;;;;;5030405;28;19920;-74
2021/06/27 02:45:59;;;;;;;;;;;;;;;;;;5029673;28;20377;-74
2021/06/27 02:48:25;;;;;;;;;;;;;;;;;;5031715;28;20008;-74
2021/06/27 02:50:51;;;;;;;;;;;;;;;;;;5030948;28;20385;-74
2021/06/27 02:53:17;;;;;;;;;;;;;;;;;;5028718;28;19924;-74
2021/06/27 02:55:43;;;;;;;;;;;;;;;;;;5027969;28;19963;-74
2021/06/27 02:58:09;;;;;;;;;;;;;;;;;;5032100;28;19917;-74
2021/06/27 03:00:37;;;;;;;;;;;;;;;;;;5030540;28;20308;-74
2021/06/27 03:03:03;;;;;;;;;;;;;;;;;;5030161;28;20376;-74
2021/06/27 03:05:28;;;;;;;;;;;;;;;;;;5027182;28;19929;-74
2021/06/27 03:07:54;;;;;;;;;;;;;;;;;;5031086;28;20354;-74
2021/06/27 03:10:20;;;;;;;;;;;;;;;;;;5027336;28;19920;-74
2021/06/27 03:12:46;;;;;;;;;;;;;;;;;;5019829;28;19919;-74
2021/06/27 03:15:12;;;;;;;;;;;;;;;;;;5031042;28;20396;-74
2021/06/27 03:17:38;;;;;;;;;;;;;;;;;;5030632;28;19920;-74
2021/06/27 03:20:04;;;;;;;;;;;;;;;;;;5021873;28;19917;-75
2021/06/27 03:22:30;;;;;;;;;;;;;;;;;;5027640;28;19992;-74
2021/06/27 03:24:56;;;;;;;;;;;;;;;;;;5035030;28;19960;-73
2021/06/27 03:27:22;;;;;;;;;;;;;;;;;;5030228;28;19935;-74
2021/06/27 03:29:48;;;;;;;;;;;;;;;;;;5031697;28;19920;-74
2021/06/27 03:32:14;;;;;;;;;;;;;;;;;;5031185;28;19960;-74
2021/06/27 03:34:40;;;;;;;;;;;;;;;;;;5032847;28;20007;-73
2021/06/27 03:37:06;;;;;;;;;;;;;;;;;;5027375;28;19967;-74
2021/06/27 03:39:31;;;;;;;;;;;;;;;;;;5028717;28;19914;-74
2021/06/27 03:41:57;;;;;;;;;;;;;;;;;;5029620;28;19940;-74
2021/06/27 03:44:23;;;;;;;;;;;;;;;;;;5041622;28;19917;-74
2021/06/27 03:46:49;;;;;;;;;;;;;;;;;;5021622;28;20295;-74
2021/06/27 03:49:15;;;;;;;;;;;;;;;;;;5031375;28;19913;-73
2021/06/27 03:51:41;;;;;;;;;;;;;;;;;;5023633;28;19949;-74
2021/06/27 03:54:07;;;;;;;;;;;;;;;;;;5028380;28;19917;-74
2021/06/27 03:56:33;;;;;;;;;;;;;;;;;;5029628;28;20009;-73
2021/06/27 03:58:59;;;;;;;;;;;;;;;;;;5028888;28;20564;-74
2021/06/27 04:01:24;;;;;;;;;;;;;;;;;;5029585;28;19913;-74
2021/06/27 04:03:50;;;;;;;;;;;;;;;;;;5043649;28;19913;-74
2021/06/27 04:06:16;;;;;;;;;;;;;;;;;;5030072;28;19991;-74
2021/06/27 04:08:42;;;;;;;;;;;;;;;;;;5029522;28;19913;-74
2021/06/27 04:11:08;;;;;;;;;;;;;;;;;;5027154;28;20304;-74
2021/06/27 04:13:34;;;;;;;;;;;;;;;;;;5026285;28;20032;-74
2021/06/27 04:16:00;;;;;;;;;;;;;;;;;;5027740;28;20343;-73
2021/06/27 04:18:26;;;;;;;;;;;;;;;;;;5023679;28;20379;-74
2021/06/27 04:20:52;;;;;;;;;;;;;;;;;;5025447;28;19917;-74
2021/06/27 04:23:18;;;;;;;;;;;;;;;;;;5028673;28;19933;-73
2021/06/27 04:25:44;;;;;;;;;;;;;;;;;;5026170;28;19923;-74
2021/06/27 04:28:10;;;;;;;;;;;;;;;;;;5026983;28;20323;-74
2021/06/27 04:30:35;;;;;;;;;;;;;;;;;;5029547;28;19910;-74
2021/06/27 04:33:01;;;;;;;;;;;;;;;;;;5027026;28;19944;-74
2021/06/27 04:35:27;;;;;;;;;;;;;;;;;;5028771;28;19920;-74
2021/06/27 04:37:53;;;;;;;;;;;;;;;;;;5026308;28;19917;-73
2021/06/27 04:40:19;;;;;;;;;;;;;;;;;;5027457;28;20327;-74
2021/06/27 04:42:45;;;;;;;;;;;;;;;;;;5041009;28;20000;-74
2021/06/27 04:45:11;;;;;;;;;;;;;;;;;;5030128;28;20348;-74
2021/06/27 04:47:37;;;;;;;;;;;;;;;;;;5028964;28;19928;-74
2021/06/27 04:50:02;;;;;;;;;;;;;;;;;;5030235;28;20323;-74
2021/06/27 04:52:28;;;;;;;;;;;;;;;;;;5027895;28;19940;-74
2021/06/27 04:54:54;;;;;;;;;;;;;;;;;;5024739;28;20300;-74
2021/06/27 04:57:20;;;;;;;;;;;;;;;;;;5027257;28;19917;-75
2021/06/27 04:59:46;;;;;;;;;;;;;;;;;;5030037;28;19995;-74
2021/06/27 05:02:12;;;;;;;;;;;;;;;;;;5026328;28;19920;-74
2021/06/27 05:04:38;;;;;;;;;;;;;;;;;;5024198;28;20392;-74
2021/06/27 05:07:03;;;;;;;;;;;;;;;;;;5024720;28;19917;-74
2021/06/27 05:09:29;;;;;;;;;;;;;;;;;;5030320;28;19913;-74
2021/06/27 05:11:55;;;;;;;;;;;;;;;;;;5029245;28;19967;-74
2021/06/27 05:14:21;;;;;;;;;;;;;;;;;;5028293;28;20245;-74
2021/06/27 05:16:47;;;;;;;;;;;;;;;;;;5028218;28;19924;-74
2021/06/27 05:19:13;;;;;;;;;;;;;;;;;;5028240;28;19938;-73
2021/06/27 05:21:39;;;;;;;;;;;;;;;;;;5027199;28;19914;-73
2021/06/27 05:24:05;;;;;;;;;;;;;;;;;;5026314;28;20388;-74
2021/06/27 05:26:30;;;;;;;;;;;;;;;;;;5027637;28;19925;-74
2021/06/27 05:28:56;;;;;;;;;;;;;;;;;;5028715;28;20455;-74
2021/06/27 05:31:22;;;;;;;;;;;;;;;;;;5026277;28;19920;-74
2021/06/27 05:33:48;;;;;;;;;;;;;;;;;;5029488;28;19923;-74
2021/06/27 05:36:14;;;;;;;;;;;;;;;;;;5028739;28;19914;-74
2021/06/27 05:38:40;;;;;;;;;;;;;;;;;;5026852;28;19913;-74
2021/06/27 05:41:06;;;;;;;;;;;;;;;;;;5028223;28;19944;-74
2021/06/27 05:43:32;;;;;;;;;;;;;;;;;;5026732;28;20376;-74
2021/06/27 05:45:58;;;;;;;;;;;;;;;;;;5029482;28;19967;-74
2021/06/27 05:48:24;;;;;;;;;;;;;;;;;;5029127;28;20420;-74
2021/06/27 05:50:50;;;;;;;;;;;;;;;;;;5025878;28;19996;-74
2021/06/27 05:53:16;;;;;;;;;;;;;;;;;;5025340;28;19925;-74
2021/06/27 05:55:42;;;;;;;;;;;;;;;;;;5025937;28;19921;-73
2021/06/27 05:58:08;;;;;;;;;;;;;;;;;;5029569;28;19917;-74
2021/06/27 06:00:34;;;;;;;;;;;;;;;;;;5023429;28;19928;-76
2021/06/27 06:03:00;;;;;;;;;;;;;;;;;;5030026;28;20012;-76
2021/06/27 06:05:26;;;;;;;;;;;;;;;;;;5030798;28;19972;-76
2021/06/27 06:07:53;;;;;;;;;;;;;;;;;;5026115;28;19946;-75
2021/06/27 06:10:19;;;;;;;;;;;;;;;;;;5032218;28;19921;-76
2021/06/27 06:12:45;;;;;;;;;;;;;;;;;;5030743;28;19925;-75
2021/06/27 06:15:11;;;;;;;;;;;;;;;;;;5024863;28;19957;-75
2021/06/27 06:17:37;;;;;;;;;;;;;;;;;;5028061;28;19963;-76
2021/06/27 06:20:03;;;;;;;;;;;;;;;;;;5030404;28;19975;-75
2021/06/27 06:22:28;;;;;;;;;;;;;;;;;;5029359;28;19920;-76
2021/06/27 06:24:54;;;;;;;;;;;;;;;;;;5031672;28;19949;-75
2021/06/27 06:27:20;;;;;;;;;;;;;;;;;;5030322;28;19996;-75
2021/06/27 06:29:46;;;;;;;;;;;;;;;;;;5030713;28;19953;-75
2021/06/27 06:32:12;;;;;;;;;;;;;;;;;;5028778;28;19963;-75
2021/06/27 06:34:38;;;;;;;;;;;;;;;;;;5037423;28;20689;-75
2021/06/27 06:37:04;;;;;;;;;;;;;;;;;;5035958;28;19924;-75
2021/06/27 06:39:30;;;;;;;;;;;;;;;;;;5031063;28;20055;-76
2021/06/27 06:41:56;;;;;;;;;;;;;;;;;;5029927;28;19917;-75
2021/06/27 06:44:22;;;;;;;;;;;;;;;;;;5026778;28;19999;-76
2021/06/27 06:46:47;;;;;;;;;;;;;;;;;;5034077;28;19913;-75
2021/06/27 06:49:13;;;;;;;;;;;;;;;;;;5024962;28;20351;-76
2021/06/27 06:51:39;;;;;;;;;;;;;;;;;;5029845;28;19963;-76
2021/06/27 06:54:05;;;;;;;;;;;;;;;;;;5043698;28;19991;-75
2021/06/27 06:56:31;;;;;;;;;;;;;;;;;;5027827;28;19917;-73
2021/06/27 06:58:57;;;;;;;;;;;;;;;;;;5029434;28;19917;-73
2021/06/27 07:01:23;;;;;;;;;;;;;;;;;;5028920;28;20398;-73
2021/06/27 07:03:49;;;;;;;;;;;;;;;;;;5029202;28;19956;-73
2021/06/27 07:06:15;;;;;;;;;;;;;;;;;;5027734;28;20091;-73
2021/06/27 07:08:41;;;;;;;;;;;;;;;;;;5026705;28;20277;-73
2021/06/27 07:11:07;;;;;;;;;;;;;;;;;;5028494;28;19924;-73
2021/06/27 07:13:32;;;;;;;;;;;;;;;;;;5027660;28;19971;-73
2021/06/27 07:15:58;;;;;;;;;;;;;;;;;;5026116;28;19913;-73
2021/06/27 07:18:24;;;;;;;;;;;;;;;;;;5029150;28;19913;-73
2021/06/27 07:20:50;;;;;;;;;;;;;;;;;;5021804;28;19913;-73
2021/06/27 07:23:16;;;;;;;;;;;;;;;;;;5026811;28;19921;-74
2021/06/27 07:25:42;;;;;;;;;;;;;;;;;;5028717;28;19961;-73
2021/06/27 07:28:08;;;;;;;;;;;;;;;;;;5030384;28;20341;-74
2021/06/27 07:30:34;;;;;;;;;;;;;;;;;;5020342;28;19971;-73
2021/06/27 07:33:00;;;;;;;;;;;;;;;;;;5027729;28;20408;-82
2021/06/27 07:35:26;;;;;;;;;;;;;;;;;;5026686;28;19920;-83
2021/06/27 07:37:52;;;;;;;;;;;;;;;;;;5029724;28;19957;-81
2021/06/27 07:40:18;;;;;;;;;;;;;;;;;;5031532;28;19921;-81
2021/06/27 07:42:44;;;;;;;;;;;;;;;;;;5021485;28;19917;-82
2021/06/27 07:45:10;;;;;;;;;;;;;;;;;;5026707;28;19924;-82
2021/06/27 07:47:36;;;;;;;;;;;;;;;;;;5027171;28;19913;-81
2021/06/27 07:50:02;;;;;;;;;;;;;;;;;;5027632;28;20011;-81
2021/06/27 07:52:28;;;;;;;;;;;;;;;;;;5029956;28;19916;-81
2021/06/27 07:54:54;;;;;;;;;;;;;;;;;;5027378;28;19948;-81
2021/06/27 07:57:20;;;;;;;;;;;;;;;;;;5024148;28;19917;-81
2021/06/27 07:59:47;;;;;;;;;;;;;;;;;;5026201;28;19948;-81
2021/06/27 08:02:13;;;;;;;;;;;;;;;;;;5025496;28;19913;-82
2021/06/27 08:04:39;;;;;;;;;;;;;;;;;;5031059;28;19913;-83
2021/06/27 08:07:04;;;;;;;;;;;;;;;;;;5030021;28;19913;-82
2021/06/27 08:09:31;;;;;;;;;;;;;;;;;;5028342;28;19917;-83
2021/06/27 08:11:56;;;;;;;;;;;;;;;;;;5045101;28;19913;-84
2021/06/27 08:14:22;;;;;;;;;;;;;;;;;;5031034;28;20490;-82
2021/06/27 08:16:48;;;;;;;;;;;;;;;;;;5027150;28;20011;-82
2021/06/27 08:19:14;;;;;;;;;;;;;;;;;;5031558;28;19956;-82
2021/06/27 08:21:40;;;;;;;;;;;;;;;;;;5029429;28;20300;-82
2021/06/27 08:24:06;;;;;;;;;;;;;;;;;;5029907;28;20008;-82
2021/06/27 08:26:32;;;;;;;;;;;;;;;;;;5028743;28;19913;-83
2021/06/27 08:28:58;;;;;;;;;;;;;;;;;;5029282;28;20009;-82
2021/06/27 08:31:24;;;;;;;;;;;;;;;;;;5020491;28;20008;-82
2021/06/27 08:33:50;;;;;;;;;;;;;;;;;;5024519;28;19917;-82
2021/06/27 08:36:16;;;;;;;;;;;;;;;;;;5026785;28;20032;-82
2021/06/27 08:38:41;;;;;;;;;;;;;;;;;;5030800;28;19948;-83
2021/06/27 08:41:07;;;;;;;;;;;;;;;;;;5027995;28;19978;-83
2021/06/27 08:43:33;;;;;;;;;;;;;;;;;;5024882;28;19917;-82
2021/06/27 08:45:59;;;;;;;;;;;;;;;;;;5027655;28;19929;-82
2021/06/27 08:48:25;;;;;;;;;;;;;;;;;;5026115;28;20537;-82
2021/06/27 08:50:51;;;;;;;;;;;;;;;;;;5043843;28;19986;-82
2021/06/27 08:53:17;;;;;;;;;;;;;;;;;;5030396;28;20031;-83
2021/06/27 08:55:43;;;;;;;;;;;;;;;;;;5030430;28;19955;-82
2021/06/27 08:58:12;;;;;;;;;;;;;;;;;;5030142;28;19924;-83
2021/06/27 09:00:38;;;;;;;;;;;;;;;;;;5026450;28;19964;-82
2021/06/27 09:03:03;;;;;;;;;;;;;;;;;;5030179;28;20019;-82
2021/06/27 09:05:29;;;;;;;;;;;;;;;;;;5029121;28;19973;-82
2021/06/27 09:07:55;;;;;;;;;;;;;;;;;;5028728;28;20003;-83
2021/06/27 09:10:21;;;;;;;;;;;;;;;;;;5025310;28;19920;-83
2021/06/27 09:12:47;;;;;;;;;;;;;;;;;;5031298;28;19956;-81
2021/06/27 09:15:13;;;;;;;;;;;;;;;;;;5030584;28;19913;-80
2021/06/27 09:17:39;;;;;;;;;;;;;;;;;;5027615;28;19946;-80
2021/06/27 09:20:05;;;;;;;;;;;;;;;;;;5042086;28;19966;-80
2021/06/27 09:22:31;;;;;;;;;;;;;;;;;;5027525;28;19917;-80
2021/06/27 09:24:57;;;;;;;;;;;;;;;;;;5029879;28;19913;-80
2021/06/27 09:27:23;;;;;;;;;;;;;;;;;;5023483;28;20277;-80
2021/06/27 09:29:50;;;;;;;;;;;;;;;;;;5030711;28;19967;-80
2021/06/27 09:32:16;;;;;;;;;;;;;;;;;;5028516;28;20552;-79
2021/06/27 09:34:42;;;;;;;;;;;;;;;;;;5029397;28;19913;-80
2021/06/27 09:37:08;;;;;;;;;;;;;;;;;;5028314;28;20288;-80
2021/06/27 09:39:34;;;;;;;;;;;;;;;;;;5027207;28;19971;-80
2021/06/27 09:42:04;;;;;;;;;;;;;;;;;;5025527;28;19920;-82
2021/06/27 09:44:29;;;;;;;;;;;;;;;;;;5031119;28;20292;-82
2021/06/27 09:46:55;;;;;;;;;;;;;;;;;;5029272;28;19917;-82
2021/06/27 09:49:21;;;;;;;;;;;;;;;;;;5031020;28;19926;-82
2021/06/27 09:51:47;;;;;;;;;;;;;;;;;;5028689;28;19913;-82
2021/06/27 09:54:13;;;;;;;;;;;;;;;;;;5028156;28;19921;-80
2021/06/27 09:56:39;;;;;;;;;;;;;;;;;;5028321;28;20388;-80
2021/06/27 09:59:05;;;;;;;;;;;;;;;;;;5028754;28;19920;-80
2021/06/27 10:01:31;;;;;;;;;;;;;;;;;;5029738;28;20288;-80
2021/06/27 10:03:57;;;;;;;;;;;;;;;;;;5026530;28;19920;-80
2021/06/27 10:06:23;;;;;;;;;;;;;;;;;;5026146;28;19924;-80
2021/06/27 10:08:49;;;;;;;;;;;;;;;;;;5030047;28;20152;-82
2021/06/27 10:11:18;;;;;;;;;;;;;;;;;;5029009;28;19923;-82
2021/06/27 10:13:46;;;;;;;;;;;;;;;;;;5028559;28;19917;-81
2021/06/27 10:16:15;;;;;;;;;;;;;;;;;;5029274;28;20381;-82
2021/06/27 10:18:41;;;;;;;;;;;;;;;;;;5028230;28;19936;-82
2021/06/27 10:21:07;;;;;;;;;;;;;;;;;;5028609;28;20004;-82
2021/06/27 10:23:32;;;;;;;;;;;;;;;;;;5025470;28;19917;-81
2021/06/27 10:25:58;;;;;;;;;;;;;;;;;;5028785;28;20391;-81
2021/06/27 10:28:24;;;;;;;;;;;;;;;;;;5029408;28;19920;-82
2021/06/27 10:30:50;;;;;;;;;;;;;;;;;;5030265;28;19958;-82
2021/06/27 10:33:16;;;;;;;;;;;;;;;;;;5027769;28;20342;-82
2021/06/27 10:35:42;;;;;;;;;;;;;;;;;;5030070;28;20296;-83
2021/06/27 10:38:08;;;;;;;;;;;;;;;;;;5026959;28;19921;-82
2021/06/27 10:40:34;;;;;;;;;;;;;;;;;;5044778;28;20063;-82
2021/06/27 10:43:01;;;;;;;;;;;;;;;;;;5029934;28;19984;-82
2021/06/27 10:45:30;;;;;;;;;;;;;;;;;;5030506;28;19913;-82
2021/06/27 10:47:56;;;;;;;;;;;;;;;;;;5029061;28;19913;-82
2021/06/27 10:50:22;;;;;;;;;;;;;;;;;;5042176;28;20034;-82
2021/06/27 10:52:48;;;;;;;;;;;;;;;;;;5027842;28;19913;-82
2021/06/27 10:55:15;;;;;;;;;;;;;;;;;;5029769;28;19914;-82
2021/06/27 10:57:40;;;;;;;;;;;;;;;;;;5031048;28;20024;-82
2021/06/27 11:00:06;;;;;;;;;;;;;;;;;;5046746;28;19948;-82
2021/06/27 11:02:41;;;;;;;;;;;;;;;;;;5032996;28;19917;-82
2021/06/27 11:05:07;;;;;;;;;;;;;;;;;;5030761;28;20011;-82
2021/06/27 11:07:35;;;;;;;;;;;;;;;;;;5030597;28;20005;-82
2021/06/27 11:10:01;;;;;;;;;;;;;;;;;;5032126;28;20000;-81
2021/06/27 11:12:27;;;;;;;;;;;;;;;;;;5031657;28;19964;-81
2021/06/27 11:14:53;;;;;;;;;;;;;;;;;;5032715;28;20402;-82
2021/06/27 11:17:20;;;;;;;;;;;;;;;;;;5032771;28;20012;-82
2021/06/27 11:19:45;;;;;;;;;;;;;;;;;;5027045;28;19920;-82
2021/06/27 11:22:11;;;;;;;;;;;;;;;;;;5027422;28;19913;-82
2021/06/27 11:24:37;;;;;;;;;;;;;;;;;;5033691;28;20432;-82
2021/06/27 11:27:03;;;;;;;;;;;;;;;;;;5029459;28;20305;-82
2021/06/27 11:29:29;;;;;;;;;;;;;;;;;;5032674;28;19920;-82
2021/06/27 11:31:55;;;;;;;;;;;;;;;;;;5031332;28;19913;-82
2021/06/27 11:34:21;;;;;;;;;;;;;;;;;;5032129;28;19920;-81
2021/06/27 11:36:47;;;;;;;;;;;;;;;;;;5031013;28;19913;-82
2021/06/27 11:39:13;;;;;;;;;;;;;;;;;;5031135;28;19924;-82
2021/06/27 11:41:39;;;;;;;;;;;;;;;;;;5030027;28;19913;-82
2021/06/27 11:44:05;;;;;;;;;;;;;;;;;;5033132;28;19921;-82
2021/06/27 11:46:31;;;;;;;;;;;;;;;;;;5028611;28;20285;-82
2021/06/27 11:48:57;;;;;;;;;;;;;;;;;;5032096;28;20415;-82
2021/06/27 11:51:23;;;;;;;;;;;;;;;;;;5033011;28;20004;-82
2021/06/27 11:53:49;;;;;;;;;;;;;;;;;;5032739;28;19913;-82
2021/06/27 11:56:21;;;;;;;;;;;;;;;;;;5029767;28;20380;-82
2021/06/27 11:58:47;;;;;;;;;;;;;;;;;;5031420;28;19917;-82
2021/06/27 12:01:13;;;;;;;;;;;;;;;;;;5025686;28;20343;-82
2021/06/27 12:03:39;;;;;;;;;;;;;;;;;;5029841;28;19932;-82
2021/06/27 12:06:05;;;;;;;;;;;;;;;;;;5030036;28;20289;-82
2021/06/27 12:08:31;;;;;;;;;;;;;;;;;;5032368;28;19943;-82
2021/06/27 12:10:57;;;;;;;;;;;;;;;;;;5031630;28;19917;-82
2021/06/27 12:13:23;;;;;;;;;;;;;;;;;;5026978;28;19920;-82
2021/06/27 12:15:49;;;;;;;;;;;;;;;;;;5033141;28;19920;-82
2021/06/27 12:18:14;;;;;;;;;;;;;;;;;;5028906;28;19923;-82
2021/06/27 12:20:45;;;;;;;;;;;;;;;;;;5029530;28;19920;-82
2021/06/27 12:23:11;;;;;;;;;;;;;;;;;;5045162;28;19924;-82
2021/06/27 12:25:37;;;;;;;;;;;;;;;;;;5030677;28;20368;-82
2021/06/27 12:28:03;;;;;;;;;;;;;;;;;;5031005;28;19920;-82
2021/06/27 12:30:28;;;;;;;;;;;;;;;;;;5031595;28;19913;-81
2021/06/27 12:32:54;;;;;;;;;;;;;;;;;;5027918;28;19917;-82
2021/06/27 12:35:20;;;;;;;;;;;;;;;;;;5031358;28;19936;-82
2021/06/27 12:37:46;;;;;;;;;;;;;;;;;;5031268;28;19921;-82
2021/06/27 12:40:12;;;;;;;;;;;;;;;;;;5031387;28;20039;-81
2021/06/27 12:42:38;;;;;;;;;;;;;;;;;;5027148;28;19924;-82
2021/06/27 12:45:04;;;;;;;;;;;;;;;;;;5029358;28;19920;-82
2021/06/27 12:47:30;;;;;;;;;;;;;;;;;;5029615;28;19995;-82
2021/06/27 12:49:55;;;;;;;;;;;;;;;;;;5027143;28;19914;-82
2021/06/27 12:52:21;;;;;;;;;;;;;;;;;;5031481;28;19920;-82
2021/06/27 12:54:47;;;;;;;;;;;;;;;;;;5031122;28;20335;-82
2021/06/27 12:57:13;;;;;;;;;;;;;;;;;;5024946;28;19917;-82
2021/06/27 12:59:42;;;;;;;;;;;;;;;;;;5030054;28;19921;-82
2021/06/27 13:02:11;;;;;;;;;;;;;;;;;;5030375;28;19913;-82
2021/06/27 13:04:37;;;;;;;;;;;;;;;;;;5028336;28;19925;-82
2021/06/27 13:07:03;;;;;;;;;;;;;;;;;;5028976;28;20000;-82
2021/06/27 13:09:29;;;;;;;;;;;;;;;;;;5026248;28;19917;-82
2021/06/27 13:11:55;;;;;;;;;;;;;;;;;;5029096;28;19924;-82
2021/06/27 13:14:21;;;;;;;;;;;;;;;;;;5029694;28;19913;-82
2021/06/27 13:16:47;;;;;;;;;;;;;;;;;;5025928;28;19980;-82
2021/06/27 13:19:13;;;;;;;;;;;;;;;;;;5031522;28;19913;-82
2021/06/27 13:21:39;;;;;;;;;;;;;;;;;;5026662;28;19959;-82
2021/06/27 13:24:04;;;;;;;;;;;;;;;;;;5024738;28;19917;-82
2021/06/27 13:26:30;;;;;;;;;;;;;;;;;;5027872;28;20369;-82
2021/06/27 13:28:56;;;;;;;;;;;;;;;;;;5030753;28;20377;-82
2021/06/27 13:31:22;;;;;;;;;;;;;;;;;;5025587;28;19917;-82
2021/06/27 13:33:48;;;;;;;;;;;;;;;;;;5028865;28;19917;-82
2021/06/27 13:36:14;;;;;;;;;;;;;;;;;;5026062;28;20447;-82
2021/06/27 13:38:40;;;;;;;;;;;;;;;;;;5026155;28;19917;-82
2021/06/27 13:41:06;;;;;;;;;;;;;;;;;;5044544;28;20444;-82
2021/06/27 13:43:32;;;;;;;;;;;;;;;;;;5029672;28;20003;-82
2021/06/27 13:45:58;;;;;;;;;;;;;;;;;;5028430;28;19913;-82
2021/06/27 13:48:24;;;;;;;;;;;;;;;;;;5028976;28;20376;-83
2021/06/27 13:50:50;;;;;;;;;;;;;;;;;;5042758;28;19913;-82
2021/06/27 13:53:16;;;;;;;;;;;;;;;;;;5026452;28;20578;-82
2021/06/27 13:55:41;;;;;;;;;;;;;;;;;;5027398;28;19913;-82
2021/06/27 13:58:07;;;;;;;;;;;;;;;;;;5029714;28;19924;-82
2021/06/27 14:00:33;;;;;;;;;;;;;;;;;;5029789;28;19961;-82
2021/06/27 14:02:59;;;;;;;;;;;;;;;;;;5023636;28;19925;-82
2021/06/27 14:05:25;;;;;;;;;;;;;;;;;;5028774;28;20098;-82
2021/06/27 14:07:51;;;;;;;;;;;;;;;;;;5030067;28;19921;-82
2021/06/27 14:10:17;;;;;;;;;;;;;;;;;;5028919;28;19917;-82
2021/06/27 14:12:43;;;;;;;;;;;;;;;;;;5028790;28;19913;-82
2021/06/27 14:15:09;;;;;;;;;;;;;;;;;;5042953;28;19921;-82
2021/06/27 14:17:35;;;;;;;;;;;;;;;;;;5029614;28;20380;-83
2021/06/27 14:20:00;;;;;;;;;;;;;;;;;;5025272;28;20002;-82
2021/06/27 14:22:26;;;;;;;;;;;;;;;;;;5025780;28;19924;-82
2021/06/27 14:24:52;;;;;;;;;;;;;;;;;;5028094;28;20405;-83
2021/06/27 14:27:18;;;;;;;;;;;;;;;;;;5026513;28;19920;-83
2021/06/27 14:29:44;;;;;;;;;;;;;;;;;;5032667;28;19955;-83
2021/06/27 14:32:10;;;;;;;;;;;;;;;;;;5030808;28;19967;-83
2021/06/27 14:34:36;;;;;;;;;;;;;;;;;;5029695;28;19920;-83
2021/06/27 14:37:02;;;;;;;;;;;;;;;;;;5046874;28;19913;-83
2021/06/27 14:39:29;;;;;;;;;;;;;;;;;;5032544;28;19913;-83
2021/06/27 14:41:55;;;;;;;;;;;;;;;;;;5032606;28;20024;-83
2021/06/27 14:44:21;;;;;;;;;;;;;;;;;;5048407;28;20049;-83
2021/06/27 14:46:47;;;;;;;;;;;;;;;;;;5032022;28;19913;-83
2021/06/27 14:49:12;;;;;;;;;;;;;;;;;;5031894;28;19966;-83
2021/06/27 14:51:38;;;;;;;;;;;;;;;;;;5033305;28;19917;-83
2021/06/27 14:54:04;;;;;;;;;;;;;;;;;;5030114;28;20331;-83
2021/06/27 14:56:30;;;;;;;;;;;;;;;;;;5028228;28;19952;-83
2021/06/27 14:58:56;;;;;;;;;;;;;;;;;;5033207;28;20388;-83
2021/06/27 15:01:23;;;;;;;;;;;;;;;;;;5031253;28;19921;-84
2021/06/27 15:03:48;;;;;;;;;;;;;;;;;;5031621;28;19918;-83
2021/06/27 15:06:14;;;;;;;;;;;;;;;;;;5029457;28;19943;-83
2021/06/27 15:08:40;;;;;;;;;;;;;;;;;;5031043;28;19921;-83
2021/06/27 15:11:06;;;;;;;;;;;;;;;;;;5031345;28;19928;-83
2021/06/27 15:13:32;;;;;;;;;;;;;;;;;;5031183;28;20411;-83
2021/06/27 15:15:58;;;;;;;;;;;;;;;;;;5030659;28;20380;-82
2021/06/27 15:18:24;;;;;;;;;;;;;;;;;;5027445;28;20016;-83
2021/06/27 15:20:50;;;;;;;;;;;;;;;;;;5028760;28;19920;-83
2021/06/27 15:23:16;;;;;;;;;;;;;;;;;;5025011;28;20397;-83
2021/06/27 15:25:42;;;;;;;;;;;;;;;;;;5028641;28;19953;-83
2021/06/27 15:28:08;;;;;;;;;;;;;;;;;;5032469;28;19920;-83
2021/06/27 15:30:33;;;;;;;;;;;;;;;;;;5031173;28;19960;-83
2021/06/27 15:32:59;;;;;;;;;;;;;;;;;;5030846;28;19913;-83
2021/06/27 15:35:26;;;;;;;;;;;;;;;;;;5029561;28;20015;-83
2021/06/27 15:37:52;;;;;;;;;;;;;;;;;;5028833;28;19913;-83
2021/06/27 15:40:18;;;;;;;;;;;;;;;;;;5027816;28;20008;-82
2021/06/27 15:42:44;;;;;;;;;;;;;;;;;;5030901;28;20336;-82
2021/06/27 15:45:10;;;;;;;;;;;;;;;;;;5031502;28;20385;-82
2021/06/27 15:47:36;;;;;;;;;;;;;;;;;;5028480;28;20039;-83
2021/06/27 15:50:02;;;;;;;;;;;;;;;;;;5028833;28;20266;-83
2021/06/27 15:52:28;;;;;;;;;;;;;;;;;;5031992;28;20016;-82
2021/06/27 15:54:54;;;;;;;;;;;;;;;;;;5030918;28;19959;-82
2021/06/27 15:57:19;;;;;;;;;;;;;;;;;;5029803;28;19924;-83
2021/06/27 15:59:45;;;;;;;;;;;;;;;;;;5027404;28;19959;-83
2021/06/27 16:02:11;;;;;;;;;;;;;;;;;;5031468;28;19974;-83
2021/06/27 16:04:37;;;;;;;;;;;;;;;;;;5031170;28;19917;-82
2021/06/27 16:07:03;;;;;;;;;;;;;;;;;;5028986;28;19921;-82
2021/06/27 16:09:29;;;;;;;;;;;;;;;;;;5031372;28;20864;-82
2021/06/27 16:11:55;;;;;;;;;;;;;;;;;;5030864;28;19925;-83
2021/06/27 16:14:21;;;;;;;;;;;;;;;;;;5030354;28;19992;-82
2021/06/27 16:16:47;;;;;;;;;;;;;;;;;;5029731;28;19916;-83
2021/06/27 16:19:13;;;;;;;;;;;;;;;;;;5030769;28;19913;-82
2021/06/27 16:21:41;;;;;;;;;;;;;;;;;;5025342;28;19913;-82
2021/06/27 16:24:06;;;;;;;;;;;;;;;;;;5030202;28;19921;-82
2021/06/27 16:26:34;;;;;;;;;;;;;;;;;;5030337;28;20399;-82
2021/06/27 16:29:00;;;;;;;;;;;;;;;;;;5045927;28;19913;-82
2021/06/27 16:31:26;;;;;;;;;;;;;;;;;;5029426;28;19924;-82
2021/06/27 16:33:52;;;;;;;;;;;;;;;;;;5028630;28;19924;-82
2021/06/27 16:36:18;;;;;;;;;;;;;;;;;;5029341;28;19960;-82